sensor_id;sensor_type;location;lat;lon;timestamp;P1;durP1;ratioP1;P2;durP2;ratioP2
34557;SDS011;24708;48.888;8.736;2022-11-30T06:32:06;48.47;;;17.90;;
34557;SDS011;24708;48.888;8.736;2022-11-30T06:34:33;62.33;;;21.80;;
34557;SDS011;24708;48.888;8.736;2022-11-30T06:37:00;53.03;;;19.45;;
34557;SDS011;24708;48.888;8.736;2022-11-30T06:39:28;48.83;;;19.08;;
34557;SDS011;24708;48.888;8.736;2022-11-30T06:42:15;49.80;;;22.75;;
34557;SDS011;24708;48.888;8.736;2022-11-30T06:44:45;49.00;;;21.42;;
34557;SDS011;24708;48.888;8.736;2022-11-30T06:47:12;48.50;;;19.30;;
34557;SDS011;24708;48.888;8.736;2022-11-30T06:49:40;47.08;;;18.02;;
34557;SDS011;24708;48.888;8.736;2022-11-30T06:52:07;41.83;;;19.83;;
34557;SDS011;24708;48.888;8.736;2022-11-30T06:54:34;56.00;;;21.52;;
34557;SDS011;24708;48.888;8.736;2022-11-30T06:57:01;53.70;;;22.50;;
34557;SDS011;24708;48.888;8.736;2022-11-30T06:59:29;56.22;;;22.20;;
34557;SDS011;24708;48.888;8.736;2022-11-30T07:01:56;60.60;;;21.95;;
34557;SDS011;24708;48.888;8.736;2022-11-30T07:04:31;49.00;;;20.23;;
34557;SDS011;24708;48.888;8.736;2022-11-30T07:06:59;49.88;;;20.20;;
34557;SDS011;24708;48.888;8.736;2022-11-30T07:09:27;49.58;;;21.55;;
34557;SDS011;24708;48.888;8.736;2022-11-30T07:11:54;38.75;;;16.40;;
34557;SDS011;24708;48.888;8.736;2022-11-30T07:14:22;34.58;;;15.68;;
34557;SDS011;24708;48.888;8.736;2022-11-30T07:16:50;26.67;;;13.45;;
34557;SDS011;24708;48.888;8.736;2022-11-30T07:19:17;27.55;;;13.50;;
34557;SDS011;24708;48.888;8.736;2022-11-30T07:21:45;40.50;;;17.33;;
34557;SDS011;24708;48.888;8.736;2022-11-30T07:24:12;37.47;;;18.08;;
34557;SDS011;24708;48.888;8.736;2022-11-30T07:27:00;37.38;;;16.08;;
34557;SDS011;24708;48.888;8.736;2022-11-30T07:29:29;35.63;;;16.17;;
34557;SDS011;24708;48.888;8.736;2022-11-30T07:31:56;33.70;;;15.82;;
34557;SDS011;24708;48.888;8.736;2022-11-30T07:34:24;37.47;;;15.75;;
34557;SDS011;24708;48.888;8.736;2022-11-30T07:36:51;37.05;;;15.98;;
34557;SDS011;24708;48.888;8.736;2022-11-30T07:39:19;43.22;;;18.92;;
34557;SDS011;24708;48.888;8.736;2022-11-30T07:41:46;44.13;;;18.20;;
34557;SDS011;24708;48.888;8.736;2022-11-30T07:44:13;30.25;;;15.27;;
34557;SDS011;24708;48.888;8.736;2022-11-30T07:46:41;38.40;;;15.88;;
34557;SDS011;24708;48.888;8.736;2022-11-30T07:49:08;35.47;;;15.75;;
34557;SDS011;24708;48.888;8.736;2022-11-30T07:51:36;33.83;;;14.88;;
34557;SDS011;24708;48.888;8.736;2022-11-30T07:54:03;33.13;;;15.30;;
34557;SDS011;24708;48.888;8.736;2022-11-30T07:56:31;30.92;;;13.68;;
34557;SDS011;24708;48.888;8.736;2022-11-30T07:58:59;31.80;;;14.13;;
34557;SDS011;24708;48.888;8.736;2022-11-30T08:01:28;30.73;;;14.88;;
34557;SDS011;24708;48.888;8.736;2022-11-30T08:03:57;37.20;;;14.00;;
34557;SDS011;24708;48.888;8.736;2022-11-30T08:06:25;35.50;;;13.98;;
34557;SDS011;24708;48.888;8.736;2022-11-30T08:08:56;27.05;;;13.35;;
34557;SDS011;24708;48.888;8.736;2022-11-30T08:11:26;25.65;;;12.63;;
34557;SDS011;24708;48.888;8.736;2022-11-30T08:13:56;31.45;;;14.07;;
34557;SDS011;24708;48.888;8.736;2022-11-30T08:16:24;30.83;;;14.23;;
34557;SDS011;24708;48.888;8.736;2022-11-30T08:18:54;32.65;;;13.93;;
34557;SDS011;24708;48.888;8.736;2022-11-30T08:21:23;34.92;;;14.20;;
34557;SDS011;24708;48.888;8.736;2022-11-30T08:23:52;31.48;;;12.77;;
34557;SDS011;24708;48.888;8.736;2022-11-30T08:26:24;28.77;;;13.60;;
34557;SDS011;24708;48.888;8.736;2022-11-30T08:28:54;38.05;;;15.80;;
34557;SDS011;24708;48.888;8.736;2022-11-30T08:31:24;39.53;;;15.65;;
34557;SDS011;24708;48.888;8.736;2022-11-30T08:33:55;34.50;;;15.98;;
34557;SDS011;24708;48.888;8.736;2022-11-30T08:36:26;43.70;;;17.35;;
34557;SDS011;24708;48.888;8.736;2022-11-30T08:38:55;29.10;;;13.85;;
34557;SDS011;24708;48.888;8.736;2022-11-30T08:41:24;33.35;;;15.43;;
34557;SDS011;24708;48.888;8.736;2022-11-30T08:43:52;33.15;;;15.43;;
34557;SDS011;24708;48.888;8.736;2022-11-30T08:46:22;30.10;;;14.30;;
34557;SDS011;24708;48.888;8.736;2022-11-30T08:49:10;28.15;;;12.52;;
34557;SDS011;24708;48.888;8.736;2022-11-30T08:51:49;36.08;;;13.98;;
34557;SDS011;24708;48.888;8.736;2022-11-30T08:54:40;27.02;;;13.68;;
34557;SDS011;24708;48.888;8.736;2022-11-30T08:57:12;34.13;;;15.65;;
34557;SDS011;24708;48.888;8.736;2022-11-30T08:59:44;35.25;;;16.35;;
34557;SDS011;24708;48.888;8.736;2022-11-30T09:02:17;35.38;;;16.20;;
34557;SDS011;24708;48.888;8.736;2022-11-30T09:04:46;40.63;;;17.55;;
34557;SDS011;24708;48.888;8.736;2022-11-30T09:07:18;36.35;;;18.42;;
34557;SDS011;24708;48.888;8.736;2022-11-30T09:09:48;25.95;;;12.57;;
34557;SDS011;24708;48.888;8.736;2022-11-30T09:12:23;33.63;;;16.02;;
34557;SDS011;24708;48.888;8.736;2022-11-30T09:14:52;28.17;;;13.32;;
34557;SDS011;24708;48.888;8.736;2022-11-30T09:17:39;33.50;;;13.70;;
34557;SDS011;24708;48.888;8.736;2022-11-30T09:20:14;35.08;;;15.45;;
34557;SDS011;24708;48.888;8.736;2022-11-30T09:22:43;35.47;;;15.98;;
34557;SDS011;24708;48.888;8.736;2022-11-30T09:25:11;35.67;;;14.38;;
34557;SDS011;24708;48.888;8.736;2022-11-30T09:27:41;32.35;;;14.57;;
34557;SDS011;24708;48.888;8.736;2022-11-30T09:30:13;29.90;;;13.18;;
34557;SDS011;24708;48.888;8.736;2022-11-30T09:32:43;31.35;;;12.07;;
34557;SDS011;24708;48.888;8.736;2022-11-30T09:35:34;32.08;;;13.80;;
34557;SDS011;24708;48.888;8.736;2022-11-30T09:38:16;32.05;;;14.43;;
34557;SDS011;24708;48.888;8.736;2022-11-30T09:40:47;35.38;;;14.60;;
34557;SDS011;24708;48.888;8.736;2022-11-30T09:46:11;32.22;;;14.27;;
34557;SDS011;24708;48.888;8.736;2022-11-30T09:48:58;35.40;;;14.05;;
34557;SDS011;24708;48.888;8.736;2022-11-30T09:51:44;30.17;;;13.05;;
34557;SDS011;24708;48.888;8.736;2022-11-30T09:54:19;35.85;;;13.82;;
34557;SDS011;24708;48.888;8.736;2022-11-30T09:57:30;29.58;;;12.20;;
34557;SDS011;24708;48.888;8.736;2022-11-30T10:00:41;33.50;;;13.50;;
34557;SDS011;24708;48.888;8.736;2022-11-30T10:03:09;33.25;;;13.55;;
34557;SDS011;24708;48.888;8.736;2022-11-30T10:08:18;29.35;;;14.20;;
34557;SDS011;24708;48.888;8.736;2022-11-30T10:11:32;41.67;;;16.02;;
34557;SDS011;24708;48.888;8.736;2022-11-30T10:14:14;35.17;;;14.73;;
34557;SDS011;24708;48.888;8.736;2022-11-30T10:20:14;38.63;;;15.25;;
34557;SDS011;24708;48.888;8.736;2022-11-30T10:23:15;39.33;;;14.40;;
34557;SDS011;24708;48.888;8.736;2022-11-30T10:25:54;45.22;;;16.63;;
34557;SDS011;24708;48.888;8.736;2022-11-30T10:28:28;32.55;;;13.70;;
34557;SDS011;24708;48.888;8.736;2022-11-30T10:31:15;50.13;;;18.30;;
34557;SDS011;24708;48.888;8.736;2022-11-30T10:33:45;39.13;;;14.90;;
34557;SDS011;24708;48.888;8.736;2022-11-30T10:36:21;29.80;;;13.73;;
34557;SDS011;24708;48.888;8.736;2022-11-30T10:39:16;35.97;;;15.40;;
34557;SDS011;24708;48.888;8.736;2022-11-30T10:41:53;36.38;;;15.50;;
34557;SDS011;24708;48.888;8.736;2022-11-30T10:44:31;39.15;;;17.23;;
34557;SDS011;24708;48.888;8.736;2022-11-30T10:47:11;39.65;;;16.17;;
34557;SDS011;24708;48.888;8.736;2022-11-30T10:49:51;41.72;;;16.92;;
34557;SDS011;24708;48.888;8.736;2022-11-30T10:52:23;41.28;;;15.88;;
34557;SDS011;24708;48.888;8.736;2022-11-30T10:54:55;37.55;;;15.40;;
34557;SDS011;24708;48.888;8.736;2022-11-30T10:57:30;32.53;;;15.50;;
34557;SDS011;24708;48.888;8.736;2022-11-30T10:59:59;34.38;;;13.60;;
34557;SDS011;24708;48.888;8.736;2022-11-30T11:05:08;36.65;;;14.77;;
34557;SDS011;24708;48.888;8.736;2022-11-30T11:07:57;34.10;;;15.93;;
34557;SDS011;24708;48.888;8.736;2022-11-30T11:10:46;40.20;;;17.25;;
34557;SDS011;24708;48.888;8.736;2022-11-30T11:13:19;38.95;;;16.55;;
34557;SDS011;24708;48.888;8.736;2022-11-30T11:16:04;47.03;;;20.75;;
34557;SDS011;24708;48.888;8.736;2022-11-30T11:18:34;39.22;;;17.35;;
34557;SDS011;24708;48.888;8.736;2022-11-30T11:21:17;42.03;;;16.90;;
34557;SDS011;24708;48.888;8.736;2022-11-30T11:23:46;46.58;;;18.27;;
34557;SDS011;24708;48.888;8.736;2022-11-30T11:26:18;42.38;;;16.15;;
34557;SDS011;24708;48.888;8.736;2022-11-30T11:28:51;37.80;;;16.75;;
34557;SDS011;24708;48.888;8.736;2022-11-30T11:31:34;57.63;;;19.25;;
34557;SDS011;24708;48.888;8.736;2022-11-30T11:34:39;46.80;;;18.95;;
34557;SDS011;24708;48.888;8.736;2022-11-30T11:39:30;38.95;;;15.27;;
34557;SDS011;24708;48.888;8.736;2022-11-30T11:41:58;37.95;;;14.95;;
34557;SDS011;24708;48.888;8.736;2022-11-30T11:44:26;36.50;;;14.73;;
34557;SDS011;24708;48.888;8.736;2022-11-30T11:47:00;28.85;;;13.43;;
34557;SDS011;24708;48.888;8.736;2022-11-30T11:49:34;29.13;;;12.70;;
34557;SDS011;24708;48.888;8.736;2022-11-30T11:55:02;30.15;;;13.75;;
34557;SDS011;24708;48.888;8.736;2022-11-30T11:57:37;34.70;;;16.55;;
34557;SDS011;24708;48.888;8.736;2022-11-30T12:00:16;28.35;;;13.70;;
34557;SDS011;24708;48.888;8.736;2022-11-30T12:05:57;37.28;;;15.15;;
34557;SDS011;24708;48.888;8.736;2022-11-30T12:08:46;36.70;;;14.13;;
34557;SDS011;24708;48.888;8.736;2022-11-30T12:11:51;37.65;;;15.43;;
34557;SDS011;24708;48.888;8.736;2022-11-30T12:14:11;32.30;;;14.20;;
34557;SDS011;24708;48.888;8.736;2022-11-30T12:16:49;33.10;;;14.05;;
34557;SDS011;24708;48.888;8.736;2022-11-30T12:19:33;36.03;;;14.05;;
34557;SDS011;24708;48.888;8.736;2022-11-30T12:22:18;30.98;;;14.07;;
34557;SDS011;24708;48.888;8.736;2022-11-30T12:25:09;39.20;;;14.57;;
34557;SDS011;24708;48.888;8.736;2022-11-30T12:28:00;31.13;;;13.18;;
34557;SDS011;24708;48.888;8.736;2022-11-30T12:30:59;35.10;;;16.17;;
34557;SDS011;24708;48.888;8.736;2022-11-30T12:39:57;34.40;;;15.18;;
34557;SDS011;24708;48.888;8.736;2022-11-30T12:43:04;34.28;;;16.70;;
34557;SDS011;24708;48.888;8.736;2022-11-30T12:45:42;32.70;;;15.35;;
34557;SDS011;24708;48.888;8.736;2022-11-30T12:51:23;29.92;;;13.77;;
34557;SDS011;24708;48.888;8.736;2022-11-30T12:56:51;36.40;;;15.48;;
34557;SDS011;24708;48.888;8.736;2022-11-30T12:59:34;31.90;;;14.65;;
34557;SDS011;24708;48.888;8.736;2022-11-30T13:02:20;31.15;;;15.18;;
34557;SDS011;24708;48.888;8.736;2022-11-30T13:05:12;34.10;;;15.73;;
34557;SDS011;24708;48.888;8.736;2022-11-30T13:07:50;40.72;;;18.13;;
34557;SDS011;24708;48.888;8.736;2022-11-30T13:10:28;45.63;;;20.13;;
34557;SDS011;24708;48.888;8.736;2022-11-30T13:13:16;45.28;;;19.58;;
34557;SDS011;24708;48.888;8.736;2022-11-30T13:15:47;47.83;;;19.55;;
34557;SDS011;24708;48.888;8.736;2022-11-30T13:18:17;48.00;;;19.90;;
34557;SDS011;24708;48.888;8.736;2022-11-30T13:23:33;44.38;;;19.00;;
34557;SDS011;24708;48.888;8.736;2022-11-30T13:26:10;54.60;;;21.05;;
34557;SDS011;24708;48.888;8.736;2022-11-30T13:31:44;46.60;;;18.70;;
34557;SDS011;24708;48.888;8.736;2022-11-30T13:34:53;45.60;;;19.50;;
34557;SDS011;24708;48.888;8.736;2022-11-30T13:37:40;45.70;;;20.65;;
34557;SDS011;24708;48.888;8.736;2022-11-30T13:40:18;46.22;;;18.85;;
34557;SDS011;24708;48.888;8.736;2022-11-30T13:42:48;40.60;;;20.45;;
34557;SDS011;24708;48.888;8.736;2022-11-30T13:45:30;45.13;;;19.80;;
34557;SDS011;24708;48.888;8.736;2022-11-30T13:47:59;50.90;;;21.20;;
34557;SDS011;24708;48.888;8.736;2022-11-30T13:50:46;51.63;;;18.55;;
34557;SDS011;24708;48.888;8.736;2022-11-30T13:53:19;50.58;;;20.60;;
34557;SDS011;24708;48.888;8.736;2022-11-30T13:58:23;50.28;;;19.60;;
34557;SDS011;24708;48.888;8.736;2022-11-30T14:01:27;42.17;;;18.77;;
34557;SDS011;24708;48.888;8.736;2022-11-30T14:06:45;49.60;;;19.05;;
34557;SDS011;24708;48.888;8.736;2022-11-30T14:09:16;41.85;;;17.27;;
34557;SDS011;24708;48.888;8.736;2022-11-30T14:12:35;42.92;;;17.08;;
34557;SDS011;24708;48.888;8.736;2022-11-30T14:15:24;58.15;;;18.63;;
34557;SDS011;24708;48.888;8.736;2022-11-30T14:17:57;44.60;;;17.48;;
34557;SDS011;24708;48.888;8.736;2022-11-30T14:20:31;48.38;;;19.08;;
34557;SDS011;24708;48.888;8.736;2022-11-30T14:23:04;48.00;;;19.73;;
34557;SDS011;24708;48.888;8.736;2022-11-30T14:25:33;47.50;;;17.90;;
34557;SDS011;24708;48.888;8.736;2022-11-30T14:28:02;42.38;;;18.23;;
34557;SDS011;24708;48.888;8.736;2022-11-30T14:30:32;49.22;;;18.77;;
34557;SDS011;24708;48.888;8.736;2022-11-30T14:33:01;51.42;;;21.00;;
34557;SDS011;24708;48.888;8.736;2022-11-30T14:35:32;45.88;;;18.38;;
34557;SDS011;24708;48.888;8.736;2022-11-30T14:38:04;50.03;;;17.75;;
34557;SDS011;24708;48.888;8.736;2022-11-30T14:40:48;62.10;;;20.25;;
34557;SDS011;24708;48.888;8.736;2022-11-30T14:43:17;57.88;;;20.15;;
34557;SDS011;24708;48.888;8.736;2022-11-30T14:46:01;49.55;;;19.55;;
34557;SDS011;24708;48.888;8.736;2022-11-30T14:48:35;45.72;;;18.80;;
34557;SDS011;24708;48.888;8.736;2022-11-30T14:51:03;53.40;;;20.85;;
34557;SDS011;24708;48.888;8.736;2022-11-30T14:53:35;42.92;;;17.90;;
34557;SDS011;24708;48.888;8.736;2022-11-30T14:58:49;53.75;;;20.00;;
34557;SDS011;24708;48.888;8.736;2022-11-30T15:01:25;44.42;;;14.95;;
34557;SDS011;24708;48.888;8.736;2022-11-30T15:03:56;39.15;;;16.60;;
34557;SDS011;24708;48.888;8.736;2022-11-30T15:06:31;41.65;;;16.27;;
34557;SDS011;24708;48.888;8.736;2022-11-30T15:08:59;40.33;;;17.65;;
34557;SDS011;24708;48.888;8.736;2022-11-30T15:11:27;51.50;;;18.55;;
34557;SDS011;24708;48.888;8.736;2022-11-30T15:13:56;46.28;;;17.83;;
34557;SDS011;24708;48.888;8.736;2022-11-30T15:16:33;38.00;;;17.33;;
34557;SDS011;24708;48.888;8.736;2022-11-30T15:19:13;39.08;;;16.45;;
34557;SDS011;24708;48.888;8.736;2022-11-30T15:21:46;44.22;;;17.27;;
34557;SDS011;24708;48.888;8.736;2022-11-30T15:24:13;40.60;;;18.25;;
34557;SDS011;24708;48.888;8.736;2022-11-30T15:26:56;36.78;;;16.27;;
34557;SDS011;24708;48.888;8.736;2022-11-30T15:29:36;46.03;;;17.60;;
34557;SDS011;24708;48.888;8.736;2022-11-30T15:32:07;44.60;;;17.25;;
34557;SDS011;24708;48.888;8.736;2022-11-30T15:34:44;44.50;;;17.88;;
34557;SDS011;24708;48.888;8.736;2022-11-30T15:37:37;35.30;;;16.60;;
34557;SDS011;24708;48.888;8.736;2022-11-30T15:40:07;38.17;;;16.73;;
34557;SDS011;24708;48.888;8.736;2022-11-30T15:42:37;45.92;;;18.75;;
34557;SDS011;24708;48.888;8.736;2022-11-30T15:45:22;41.78;;;17.77;;
34557;SDS011;24708;48.888;8.736;2022-11-30T15:47:52;43.20;;;17.25;;
34557;SDS011;24708;48.888;8.736;2022-11-30T15:50:31;44.13;;;17.70;;
34557;SDS011;24708;48.888;8.736;2022-11-30T15:53:03;41.92;;;17.27;;
34557;SDS011;24708;48.888;8.736;2022-11-30T15:55:51;52.15;;;20.08;;
34557;SDS011;24708;48.888;8.736;2022-11-30T16:01:15;46.72;;;19.48;;
34557;SDS011;24708;48.888;8.736;2022-11-30T16:06:29;42.20;;;18.05;;
34557;SDS011;24708;48.888;8.736;2022-11-30T16:09:03;44.35;;;19.48;;
34557;SDS011;24708;48.888;8.736;2022-11-30T16:11:43;44.10;;;18.58;;
34557;SDS011;24708;48.888;8.736;2022-11-30T16:14:13;45.13;;;18.80;;
34557;SDS011;24708;48.888;8.736;2022-11-30T16:16:42;44.05;;;19.25;;
34557;SDS011;24708;48.888;8.736;2022-11-30T16:19:10;45.90;;;20.05;;
34557;SDS011;24708;48.888;8.736;2022-11-30T16:21:37;45.58;;;19.20;;
34557;SDS011;24708;48.888;8.736;2022-11-30T16:24:05;45.95;;;19.55;;
34557;SDS011;24708;48.888;8.736;2022-11-30T16:26:32;60.78;;;21.13;;
34557;SDS011;24708;48.888;8.736;2022-11-30T16:29:19;46.85;;;20.40;;
34557;SDS011;24708;48.888;8.736;2022-11-30T16:31:46;50.63;;;21.45;;
34557;SDS011;24708;48.888;8.736;2022-11-30T16:34:14;57.58;;;20.80;;
34557;SDS011;24708;48.888;8.736;2022-11-30T16:36:42;61.58;;;21.35;;
34557;SDS011;24708;48.888;8.736;2022-11-30T16:39:10;48.05;;;19.98;;
34557;SDS011;24708;48.888;8.736;2022-11-30T16:41:38;58.65;;;22.67;;
34557;SDS011;24708;48.888;8.736;2022-11-30T16:44:09;54.10;;;21.17;;
34557;SDS011;24708;48.888;8.736;2022-11-30T16:46:39;54.40;;;20.77;;
34557;SDS011;24708;48.888;8.736;2022-11-30T16:49:06;58.35;;;22.58;;
34557;SDS011;24708;48.888;8.736;2022-11-30T16:51:34;60.38;;;22.48;;
34557;SDS011;24708;48.888;8.736;2022-11-30T16:54:02;62.15;;;22.10;;
34557;SDS011;24708;48.888;8.736;2022-11-30T16:56:29;65.32;;;25.02;;
34557;SDS011;24708;48.888;8.736;2022-11-30T16:58:57;62.05;;;23.13;;
